createdAt,value
2022-12-01T00:01:59.130Z,79.38
2022-12-01T00:06:10.774Z,75.90
2022-12-01T00:10:27.304Z,72.32
2022-12-01T00:14:28.763Z,69.97
2022-12-01T00:18:30.176Z,48.45
2022-12-01T00:22:31.705Z,78.30
2022-12-01T00:26:33.134Z,62.05
2022-12-01T00:30:34.567Z,70.82
2022-12-01T00:34:37.825Z,78.47
2022-12-01T00:38:39.363Z,71.88
2022-12-01T00:42:40.941Z,66.85
2022-12-01T00:46:42.387Z,69.35
2022-12-01T00:50:44.539Z,60.67
2022-12-01T00:54:46.331Z,64.45
2022-12-01T00:58:47.743Z,71.90
2022-12-01T01:02:49.200Z,72.13
2022-12-01T01:06:51.030Z,63.80
2022-12-01T01:10:52.458Z,64.95
2022-12-01T01:14:54.131Z,66.68
2022-12-01T01:18:55.849Z,66.57
2022-12-01T01:22:57.702Z,63.30
2022-12-01T01:26:59.258Z,64.68
2022-12-01T01:31:05.570Z,69.53
2022-12-01T01:35:08.190Z,61.90
2022-12-01T01:39:09.658Z,63.17
2022-12-01T01:43:16.267Z,71.30
2022-12-01T01:47:31.426Z,68.82
2022-12-01T01:51:37.532Z,73.28
2022-12-01T01:55:39.144Z,65.72
2022-12-01T01:59:48.388Z,68.35
2022-12-01T02:03:52.367Z,68.47
2022-12-01T02:07:57.106Z,58.58
2022-12-01T02:12:11.471Z,69.57
2022-12-01T02:16:25.858Z,66.43
2022-12-01T02:20:36.094Z,69.63
2022-12-01T02:24:46.429Z,64.30
2022-12-01T02:29:29.320Z,63.63
2022-12-01T02:33:42.541Z,63.78
2022-12-01T02:37:54.871Z,51.92
2022-12-01T02:42:07.847Z,70.85
2022-12-01T02:46:15.535Z,61.60
2022-12-01T02:50:17.589Z,73.47
2022-12-01T02:54:20.273Z,68.10
2022-12-01T02:58:21.918Z,63.90
2022-12-01T03:02:42.334Z,64.65
2022-12-01T03:07:11.998Z,63.67
2022-12-01T03:11:27.090Z,71.93
2022-12-01T03:15:33.943Z,71.72
2022-12-01T03:19:44.387Z,73.65
2022-12-01T03:23:50.467Z,80.45
2022-12-01T03:28:20.327Z,80.22
2022-12-01T03:32:31.731Z,69.30
2022-12-01T03:36:42.516Z,55.90
2022-12-01T03:40:48.369Z,71.47
2022-12-01T03:44:55.452Z,54.90
2022-12-01T03:48:57.038Z,79.97
2022-12-01T03:53:11.543Z,68.88
2022-12-01T03:57:25.715Z,62.67
2022-12-01T04:01:32.725Z,76.90
2022-12-01T04:05:35.120Z,77.78
2022-12-01T04:09:36.553Z,75.25
2022-12-01T04:13:37.961Z,75.93
2022-12-01T04:17:40.065Z,67.72
2022-12-01T04:21:41.586Z,70.30
2022-12-01T04:25:43.038Z,60.22
2022-12-01T04:29:44.477Z,79.70
2022-12-01T04:33:45.906Z,69.95
2022-12-01T04:37:47.341Z,70.30
2022-12-01T04:41:48.906Z,76.47
2022-12-01T04:45:50.330Z,77.85
2022-12-01T04:49:52.205Z,74.05
2022-12-01T04:53:53.715Z,80.72
2022-12-01T04:57:55.171Z,72.00
2022-12-01T05:01:56.672Z,78.63
2022-12-01T05:06:06.901Z,66.70
2022-12-01T05:10:08.727Z,66.32
2022-12-01T05:14:10.229Z,52.05
2022-12-01T05:18:11.773Z,56.95
2022-12-01T05:22:13.213Z,65.70
2022-12-01T05:26:14.693Z,61.90
2022-12-01T05:30:16.303Z,65.82
2022-12-01T05:34:17.869Z,63.72
2022-12-01T05:38:19.799Z,73.60
2022-12-01T05:42:21.298Z,70.05
2022-12-01T05:46:22.847Z,70.15
2022-12-01T05:50:25.386Z,73.88
2022-12-01T05:54:29.803Z,72.50
2022-12-01T05:58:31.291Z,65.55
2022-12-01T06:02:32.791Z,68.88
2022-12-01T06:06:34.206Z,62.60
2022-12-01T06:10:35.647Z,76.57
2022-12-01T06:14:37.072Z,64.50
2022-12-01T06:18:41.758Z,75.30
2022-12-01T06:22:43.227Z,67.82
2022-12-01T06:26:44.642Z,65.22
2022-12-01T06:30:46.133Z,66.00
2022-12-01T06:34:47.582Z,84.15
2022-12-01T06:38:49.054Z,75.90
2022-12-01T06:42:50.593Z,74.60
2022-12-01T06:46:52.947Z,83.25
2022-12-01T06:50:57.487Z,84.32
2022-12-01T06:55:00.148Z,65.97
2022-12-01T06:59:01.840Z,63.67
2022-12-01T07:03:03.490Z,66.45
2022-12-01T07:07:05.853Z,72.85
2022-12-01T07:11:10.219Z,69.40
2022-12-01T07:15:11.678Z,71.30
2022-12-01T07:19:13.170Z,64.32
2022-12-01T07:23:14.710Z,66.05
2022-12-01T07:27:16.157Z,76.82
2022-12-01T07:31:19.062Z,74.93
2022-12-01T07:35:20.588Z,71.97
2022-12-01T07:39:22.018Z,70.28
2022-12-01T07:43:23.474Z,74.60
2022-12-01T07:47:24.927Z,72.97
2022-12-01T07:51:27.301Z,56.72
2022-12-01T07:55:28.724Z,70.38
2022-12-01T07:59:30.134Z,73.97
2022-12-01T08:03:31.629Z,73.03
2022-12-01T08:07:33.126Z,74.78
2022-12-01T08:11:35.820Z,64.95
2022-12-01T08:15:37.279Z,85.00
2022-12-01T08:19:38.818Z,74.43
2022-12-01T08:23:42.118Z,92.90
2022-12-01T08:27:43.541Z,91.47
2022-12-01T08:31:45.046Z,94.80
2022-12-01T08:35:46.538Z,92.07
2022-12-01T08:39:48.200Z,72.88
2022-12-01T08:43:57.907Z,100.63
2022-12-01T08:48:00.157Z,95.70
2022-12-01T08:52:01.622Z,110.40
2022-12-01T08:56:07.366Z,90.40
2022-12-01T09:00:09.351Z,108.03
2022-12-01T09:04:10.914Z,107.78
2022-12-01T09:08:30.757Z,112.43
2022-12-01T09:12:32.364Z,117.53
2022-12-01T09:16:33.912Z,96.55
2022-12-01T09:20:35.504Z,105.13
2022-12-01T09:24:37.210Z,107.53
2022-12-01T09:28:38.952Z,107.32
2022-12-01T09:32:40.362Z,115.18
2022-12-01T09:36:41.873Z,110.05
2022-12-01T09:40:43.802Z,110.32
2022-12-01T09:44:57.595Z,105.90
2022-12-01T09:49:02.663Z,108.28
2022-12-01T09:53:08.256Z,105.88
2022-12-01T09:57:26.819Z,89.38
2022-12-01T10:01:39.252Z,98.20
2022-12-01T10:06:25.213Z,101.63
2022-12-01T10:10:18.309Z,84.03
2022-12-01T10:14:21.072Z,104.30
2022-12-01T10:18:47.713Z,100.32
2022-12-01T10:22:49.135Z,98.30
2022-12-01T10:27:22.362Z,97.50
2022-12-01T10:31:36.941Z,108.93
2022-12-01T10:35:40.120Z,99.35
2022-12-01T10:39:44.472Z,90.35
2022-12-01T10:43:50.251Z,97.05
2022-12-01T10:48:07.927Z,99.75
2022-12-01T10:52:28.086Z,94.70
2022-12-01T10:56:31.954Z,89.88
2022-12-01T11:05:03.250Z,89.80
2022-12-01T11:09:19.170Z,88.80
2022-12-01T11:13:36.668Z,103.68
2022-12-01T11:17:42.510Z,78.95
2022-12-01T11:21:47.958Z,78.57
2022-12-01T11:26:12.871Z,63.53
2022-12-01T11:30:22.467Z,92.00
2022-12-01T11:34:30.716Z,87.75
2022-12-01T11:38:34.554Z,89.25
2022-12-01T11:42:37.035Z,95.85
2022-12-01T11:46:50.070Z,85.88
2022-12-01T11:51:09.864Z,94.13
2022-12-01T11:55:11.277Z,77.40
2022-12-01T11:59:26.552Z,84.50
2022-12-01T12:03:46.506Z,78.80
2022-12-01T12:08:01.129Z,82.22
2022-12-01T12:12:31.021Z,74.53
2022-12-01T12:16:38.591Z,54.20
2022-12-01T12:20:53.652Z,64.82
2022-12-01T12:25:27.848Z,72.65
2022-12-01T12:29:46.055Z,69.97
2022-12-01T12:34:06.281Z,58.50
2022-12-01T12:38:13.603Z,69.05
2022-12-01T12:42:23.619Z,57.03
2022-12-01T12:46:52.290Z,70.82
2022-12-01T12:50:59.603Z,54.28
2022-12-01T12:55:08.460Z,56.65
2022-12-01T12:59:21.937Z,58.17
2022-12-01T13:03:49.168Z,67.93
2022-12-01T13:08:03.186Z,67.88
2022-12-01T13:12:09.813Z,65.20
2022-12-01T13:16:17.302Z,58.22
2022-12-01T13:20:25.128Z,56.58
2022-12-01T13:24:30.353Z,66.47
2022-12-01T13:28:40.866Z,55.47
2022-12-01T13:32:43.099Z,72.78
2022-12-01T13:36:50.371Z,66.72
2022-12-01T13:41:27.125Z,57.00
2022-12-01T13:45:37.372Z,58.70
2022-12-01T13:49:50.260Z,60.67
2022-12-01T13:54:04.812Z,59.85
2022-12-01T13:58:06.805Z,57.10
2022-12-01T14:02:21.218Z,56.92
2022-12-01T14:06:31.607Z,55.75
2022-12-01T14:10:33.373Z,57.92
2022-12-01T14:14:39.230Z,53.78
2022-12-01T14:18:49.055Z,48.22
2022-12-01T14:23:18.975Z,55.85
2022-12-01T14:27:43.002Z,63.87
2022-12-01T14:31:46.348Z,46.78
2022-12-01T14:35:47.998Z,54.90
2022-12-01T14:39:49.402Z,53.75
2022-12-01T14:44:05.995Z,59.15
2022-12-01T14:48:18.457Z,60.38
2022-12-01T14:52:29.150Z,49.53
2022-12-01T14:56:32.971Z,56.65
2022-12-01T15:00:37.815Z,56.05
2022-12-01T15:05:09.590Z,53.33
2022-12-01T15:13:48.440Z,53.47
2022-12-01T15:17:50.686Z,56.08
2022-12-01T15:21:52.145Z,54.05
2022-12-01T15:25:54.926Z,51.58
2022-12-01T15:29:58.602Z,52.70
2022-12-01T15:34:00.312Z,53.38
2022-12-01T15:38:02.662Z,54.10
2022-12-01T15:42:04.800Z,48.72
2022-12-01T15:46:18.146Z,48.72
2022-12-01T15:50:45.985Z,47.40
2022-12-01T15:54:49.903Z,57.40
2022-12-01T15:58:51.827Z,55.03
2022-12-01T16:02:58.406Z,49.42
2022-12-01T16:07:09.306Z,57.25
2022-12-01T16:11:17.839Z,55.90
2022-12-01T16:15:22.786Z,49.20
2022-12-01T16:19:28.265Z,54.70
2022-12-01T16:23:32.283Z,58.03
2022-12-01T16:27:45.053Z,58.35
2022-12-01T16:32:12.715Z,66.38
2022-12-01T16:36:08.839Z,57.33
2022-12-01T16:40:12.621Z,60.72
2022-12-01T16:44:28.433Z,63.17
2022-12-01T16:48:31.325Z,59.83
2022-12-01T16:52:48.280Z,62.13
2022-12-01T16:56:49.832Z,64.53
2022-12-01T17:00:54.845Z,66.85
2022-12-01T17:04:56.526Z,64.28
2022-12-01T17:08:57.948Z,65.90
2022-12-01T17:12:59.392Z,57.63
2022-12-01T17:17:00.997Z,75.25
2022-12-01T17:21:08.375Z,69.65
2022-12-01T17:25:09.940Z,64.05
2022-12-01T17:29:11.344Z,64.22
2022-12-01T17:33:12.888Z,61.72
2022-12-01T17:37:20.531Z,68.72
2022-12-01T17:41:44.559Z,66.57
2022-12-01T17:45:46.075Z,59.10
2022-12-01T17:49:47.678Z,64.65
2022-12-01T17:53:49.208Z,59.58
2022-12-01T17:57:50.825Z,61.65
2022-12-01T18:01:52.337Z,66.20
2022-12-01T18:05:55.747Z,64.13
2022-12-01T18:09:57.225Z,64.60
2022-12-01T18:14:00.349Z,59.33
2022-12-01T18:18:01.863Z,64.97
2022-12-01T18:22:03.451Z,59.38
2022-12-01T18:26:10.800Z,58.50
2022-12-01T18:30:15.523Z,62.00
2022-12-01T18:34:17.027Z,63.05
2022-12-01T18:38:20.087Z,62.30
2022-12-01T18:42:21.700Z,63.53
2022-12-01T18:46:25.847Z,67.47
2022-12-01T18:50:27.327Z,60.72
2022-12-01T18:54:29.091Z,65.20
2022-12-01T18:58:31.785Z,68.32
2022-12-01T19:02:33.368Z,58.30
2022-12-01T19:06:36.730Z,66.53
2022-12-01T19:10:38.286Z,65.70
2022-12-01T19:14:39.750Z,60.03
2022-12-01T19:18:58.829Z,64.78
2022-12-01T19:23:00.375Z,59.67
2022-12-01T19:27:01.898Z,62.40
2022-12-01T19:31:15.535Z,60.00
2022-12-01T19:35:19.225Z,54.80
2022-12-01T19:39:20.826Z,55.90
2022-12-01T19:43:25.191Z,59.08
2022-12-01T19:47:30.042Z,58.58
2022-12-01T19:51:37.426Z,61.60
2022-12-01T19:55:42.122Z,58.15
2022-12-01T19:59:46.353Z,73.07
2022-12-01T20:03:52.647Z,65.90
2022-12-01T20:07:54.232Z,57.90
2022-12-01T20:11:55.770Z,62.33
2022-12-01T20:16:07.653Z,67.40
2022-12-01T20:20:10.832Z,61.08
2022-12-01T20:24:25.081Z,61.78
2022-12-01T20:28:26.950Z,60.20
2022-12-01T20:32:29.656Z,64.45
2022-12-01T20:36:31.408Z,67.30
2022-12-01T20:40:32.923Z,60.85
2022-12-01T20:44:36.469Z,59.25
2022-12-01T20:48:37.984Z,54.90
2022-12-01T20:52:40.756Z,61.15
2022-12-01T20:56:42.250Z,55.20
2022-12-01T21:00:46.691Z,60.47
2022-12-01T21:04:48.561Z,61.80
2022-12-01T21:08:50.667Z,84.90
2022-12-01T21:13:16.356Z,61.03
2022-12-01T21:17:29.790Z,64.13
2022-12-01T21:21:34.940Z,60.60
2022-12-01T21:25:41.485Z,57.50
2022-12-01T21:29:50.537Z,59.78
2022-12-01T21:33:52.152Z,54.27
2022-12-01T21:38:03.207Z,64.72
2022-12-01T21:42:16.646Z,54.75
2022-12-01T21:46:18.818Z,52.67
2022-12-01T21:50:24.282Z,58.20
2022-12-01T21:54:25.857Z,59.97
2022-12-01T21:58:31.251Z,59.92
2022-12-01T22:03:08.041Z,61.53
2022-12-01T22:07:12.773Z,50.45
2022-12-01T22:11:32.385Z,57.05
2022-12-01T22:15:40.708Z,61.65
2022-12-01T22:19:46.704Z,54.03
2022-12-01T22:24:18.360Z,50.55
2022-12-01T22:28:25.198Z,56.88
2022-12-01T22:32:48.373Z,65.22
2022-12-01T22:36:51.211Z,53.40
2022-12-01T22:41:06.498Z,61.15
2022-12-01T22:45:24.571Z,49.05
2022-12-01T22:49:26.222Z,49.63
2022-12-01T22:53:31.275Z,54.33
2022-12-01T22:57:34.867Z,58.40
2022-12-01T23:01:43.154Z,52.92
2022-12-01T23:05:45.360Z,53.00
2022-12-01T23:09:47.087Z,56.88
2022-12-01T23:13:48.617Z,51.38
2022-12-01T23:17:50.391Z,54.95
2022-12-01T23:21:52.824Z,50.33
2022-12-01T23:25:54.501Z,54.53
2022-12-01T23:29:55.953Z,51.28
2022-12-01T23:33:57.394Z,56.22
2022-12-01T23:37:58.913Z,52.20
2022-12-01T23:42:00.378Z,54.88
2022-12-01T23:46:06.575Z,50.53
2022-12-01T23:50:18.564Z,53.10
2022-12-01T23:54:33.199Z,58.20
2022-12-01T23:58:34.817Z,49.88
